createdAt,value
2018-12-01T00:00:24.359Z,42.70
2018-12-01T00:02:53.284Z,43.33
2018-12-01T00:05:22.132Z,39.90
2018-12-01T00:07:51.386Z,40.63
2018-12-01T00:10:20.284Z,41.70
2018-12-01T00:12:49.191Z,46.33
2018-12-01T00:15:20.283Z,38.83
2018-12-01T00:17:49.087Z,42.37
2018-12-01T00:20:20.181Z,47.87
2018-12-01T00:22:49.411Z,47.50
2018-12-01T00:25:18.269Z,50.23
2018-12-01T00:27:47.056Z,50.87
2018-12-01T00:30:17.028Z,45.73
2018-12-01T00:32:46.995Z,47.03
2018-12-01T00:35:16.294Z,41.17
2018-12-01T00:37:45.154Z,42.00
2018-12-01T00:40:18.272Z,39.77
2018-12-01T00:42:47.197Z,39.80
2018-12-01T00:45:17.300Z,39.57
2018-12-01T00:47:47.303Z,36.17
2018-12-01T00:50:17.140Z,33.37
2018-12-01T00:52:46.711Z,30.13
2018-12-01T00:55:17.665Z,34.80
2018-12-01T00:57:46.558Z,35.43
2018-12-01T01:00:21.134Z,34.47
2018-12-01T01:02:52.128Z,35.87
2018-12-01T01:05:22.135Z,34.70
2018-12-01T01:07:51.405Z,33.50
2018-12-01T01:10:21.172Z,32.17
2018-12-01T01:12:50.345Z,32.33
2018-12-01T01:15:19.579Z,32.10
2018-12-01T01:17:48.415Z,31.23
2018-12-01T01:20:18.291Z,30.33
2018-12-01T01:22:47.417Z,31.30
2018-12-01T01:25:16.624Z,32.40
2018-12-01T01:27:46.177Z,32.20
2018-12-01T01:30:21.062Z,33.67
2018-12-01T01:33:54.681Z,34.20
2018-12-01T01:36:23.495Z,34.50
2018-12-01T01:38:52.276Z,32.70
2018-12-01T01:41:21.040Z,32.30
2018-12-01T01:43:49.854Z,32.17
2018-12-01T01:46:18.698Z,32.70
2018-12-01T01:48:48.020Z,30.60
2018-12-01T01:51:16.763Z,31.83
2018-12-01T01:53:45.543Z,31.57
2018-12-01T01:56:14.266Z,30.20
2018-12-01T01:58:43.031Z,31.73
2018-12-01T02:01:11.833Z,33.07
2018-12-01T02:03:40.721Z,31.60
2018-12-01T02:06:09.673Z,32.57
2018-12-01T02:08:38.492Z,29.27
2018-12-01T02:11:07.559Z,29.13
2018-12-01T02:13:36.515Z,30.10
2018-12-01T02:16:05.733Z,28.47
2018-12-01T02:18:34.538Z,27.43
2018-12-01T02:21:03.405Z,28.47
2018-12-01T02:23:32.186Z,27.63
2018-12-01T02:26:01.033Z,27.80
2018-12-01T02:28:29.927Z,25.00
2018-12-01T02:30:58.743Z,27.07
2018-12-01T02:33:27.528Z,28.93
2018-12-01T02:35:56.373Z,28.57
2018-12-01T02:38:25.239Z,28.33
2018-12-01T02:40:54.019Z,25.97
2018-12-01T02:43:22.908Z,28.80
2018-12-01T02:46:02.615Z,27.20
2018-12-01T02:48:31.391Z,26.80
2018-12-01T02:51:00.187Z,28.47
2018-12-01T02:53:29.003Z,25.77
2018-12-01T02:55:57.767Z,27.20
2018-12-01T02:58:26.655Z,28.40
2018-12-01T03:00:55.494Z,29.53
2018-12-01T03:03:24.312Z,30.47
2018-12-01T03:05:53.117Z,29.90
2018-12-01T03:08:21.922Z,30.10
2018-12-01T03:10:50.750Z,27.77
2018-12-01T03:13:19.584Z,28.53
2018-12-01T03:15:48.521Z,29.17
2018-12-01T03:18:17.378Z,27.03
2018-12-01T03:20:53.164Z,26.17
2018-12-01T03:23:22.204Z,28.30
2018-12-01T03:25:51.009Z,26.43
2018-12-01T03:28:19.811Z,27.63
2018-12-01T03:30:48.645Z,26.33
2018-12-01T03:33:17.508Z,26.57
2018-12-01T03:35:46.427Z,27.50
2018-12-01T03:38:15.186Z,27.00
2018-12-01T03:40:48.951Z,26.27
2018-12-01T03:43:17.912Z,26.23
2018-12-01T03:45:46.945Z,24.50
2018-12-01T03:48:15.736Z,26.07
2018-12-01T03:50:44.564Z,27.87
2018-12-01T03:53:13.631Z,27.63
2018-12-01T03:55:42.404Z,28.00
2018-12-01T03:58:11.263Z,27.27
2018-12-01T04:00:40.143Z,28.63
2018-12-01T04:03:09.061Z,28.43
2018-12-01T04:05:37.924Z,29.53
2018-12-01T04:08:06.805Z,30.13
2018-12-01T04:10:35.590Z,27.67
2018-12-01T04:13:04.447Z,28.00
2018-12-01T04:15:42.461Z,30.50
2018-12-01T04:18:11.435Z,29.23
2018-12-01T04:20:40.186Z,27.23
2018-12-01T04:23:08.995Z,31.23
2018-12-01T04:25:37.814Z,32.30
2018-12-01T04:28:06.601Z,34.23
2018-12-01T04:30:35.522Z,33.27
2018-12-01T04:33:04.338Z,37.13
2018-12-01T04:35:33.131Z,36.97
2018-12-01T04:38:02.026Z,35.93
2018-12-01T04:40:30.825Z,35.57
2018-12-01T04:42:59.661Z,33.70
2018-12-01T04:45:28.459Z,34.03
2018-12-01T04:47:57.294Z,32.30
2018-12-01T04:50:26.153Z,32.27
2018-12-01T04:52:54.916Z,32.40
2018-12-01T04:55:23.746Z,31.77
2018-12-01T04:57:52.562Z,32.73
2018-12-01T05:00:22.260Z,32.67
2018-12-01T05:02:51.045Z,33.03
2018-12-01T05:05:22.951Z,32.57
2018-12-01T05:07:52.351Z,32.27
2018-12-01T05:10:22.270Z,31.20
2018-12-01T05:12:51.093Z,32.90
2018-12-01T05:15:20.300Z,32.70
2018-12-01T05:17:49.238Z,32.97
2018-12-01T05:20:22.784Z,32.30
2018-12-01T05:22:53.092Z,33.73
2018-12-01T05:25:21.964Z,32.63
2018-12-01T05:27:51.344Z,37.10
2018-12-01T05:30:20.141Z,37.30
2018-12-01T05:32:48.910Z,43.00
2018-12-01T05:35:22.186Z,47.17
2018-12-01T05:37:51.003Z,51.57
2018-12-01T05:40:19.893Z,50.40
2018-12-01T05:42:48.607Z,48.87
2018-12-01T05:45:19.241Z,49.67
2018-12-01T05:47:48.165Z,46.27
2018-12-01T05:50:23.325Z,46.30
2018-12-01T05:52:52.908Z,43.20
2018-12-01T05:55:21.868Z,41.67
2018-12-01T05:57:51.409Z,41.70
2018-12-01T06:00:20.526Z,40.17
2018-12-01T06:02:49.357Z,40.47
2018-12-01T06:05:18.140Z,42.13
2018-12-01T06:07:47.080Z,39.43
2018-12-01T06:10:17.423Z,39.43
2018-12-01T06:12:46.683Z,39.23
2018-12-01T06:15:16.425Z,40.77
2018-12-01T06:17:45.390Z,42.43
2018-12-01T06:20:15.599Z,40.80
2018-12-01T06:22:44.349Z,42.77
2018-12-01T06:25:14.467Z,42.70
2018-12-01T06:27:43.362Z,45.97
2018-12-01T06:30:14.434Z,44.77
2018-12-01T06:32:44.325Z,47.03
2018-12-01T06:35:13.211Z,45.07
2018-12-01T06:37:42.146Z,45.10
2018-12-01T06:40:18.274Z,46.40
2018-12-01T06:42:47.463Z,47.57
2018-12-01T06:45:16.986Z,46.40
2018-12-01T06:47:45.836Z,49.33
2018-12-01T06:50:23.228Z,48.90
2018-12-01T06:52:53.276Z,48.47
2018-12-01T06:55:23.149Z,48.57
2018-12-01T06:57:51.941Z,49.50
2018-12-01T07:00:25.053Z,48.03
2018-12-01T07:02:55.074Z,50.03
2018-12-01T07:05:23.866Z,51.53
2018-12-01T07:07:52.686Z,51.27
2018-12-01T07:10:22.460Z,49.27
2018-12-01T07:12:54.438Z,49.47
2018-12-01T07:15:29.713Z,48.87
2018-12-01T07:17:58.620Z,50.90
2018-12-01T07:20:27.401Z,51.00
2018-12-01T07:22:56.600Z,50.80
2018-12-01T07:25:25.487Z,50.73
2018-12-01T07:27:54.378Z,49.30
2018-12-01T07:30:23.223Z,51.33
2018-12-01T07:32:51.975Z,51.90
2018-12-01T07:35:20.729Z,49.90
2018-12-01T07:37:49.682Z,45.07
2018-12-01T07:40:18.913Z,47.83
2018-12-01T07:42:47.707Z,47.63
2018-12-01T07:45:17.018Z,50.00
2018-12-01T07:47:46.017Z,50.90
2018-12-01T07:50:16.662Z,51.77
2018-12-01T07:52:51.180Z,54.97
2018-12-01T07:55:20.526Z,55.23
2018-12-01T07:57:49.398Z,54.93
2018-12-01T08:00:18.340Z,54.87
2018-12-01T08:02:49.204Z,56.63
2018-12-01T08:05:17.973Z,59.73
2018-12-01T08:07:46.759Z,56.57
2018-12-01T08:10:16.378Z,56.17
2018-12-01T08:12:45.119Z,56.60
2018-12-01T08:15:15.040Z,57.10
2018-12-01T08:17:44.013Z,58.03
2018-12-01T08:20:14.665Z,58.00
2018-12-01T08:22:43.457Z,58.10
2018-12-01T08:25:17.343Z,59.80
2018-12-01T08:27:48.267Z,57.60
2018-12-01T08:30:18.588Z,53.10
2018-12-01T08:32:47.394Z,53.70
2018-12-01T08:35:16.300Z,60.00
2018-12-01T08:37:45.169Z,60.80
2018-12-01T08:40:15.449Z,62.67
2018-12-01T08:42:44.277Z,59.87
2018-12-01T08:45:13.124Z,61.60
2018-12-01T08:47:42.262Z,57.07
2018-12-01T08:50:13.190Z,54.17
2018-12-01T08:52:41.967Z,57.13
2018-12-01T08:55:12.245Z,55.80
2018-12-01T08:57:41.211Z,57.17
2018-12-01T09:00:15.990Z,56.13
2018-12-01T09:02:45.647Z,56.90
2018-12-01T09:05:14.513Z,57.37
2018-12-01T09:07:43.345Z,59.03
2018-12-01T09:10:12.236Z,58.07
2018-12-01T09:12:41.148Z,55.63
2018-12-01T09:15:11.241Z,56.97
2018-12-01T09:17:40.440Z,55.20
2018-12-01T09:20:11.868Z,55.73
2018-12-01T09:22:43.860Z,53.43
2018-12-01T09:25:14.731Z,57.80
2018-12-01T09:27:43.507Z,53.67
2018-12-01T09:30:16.930Z,53.27
2018-12-01T09:32:45.687Z,52.50
2018-12-01T09:35:21.058Z,53.87
2018-12-01T09:37:49.894Z,52.97
2018-12-01T09:40:19.957Z,54.90
2018-12-01T09:42:48.931Z,52.20
2018-12-01T09:45:19.319Z,55.03
2018-12-01T09:47:49.975Z,57.97
2018-12-01T09:50:18.952Z,55.20
2018-12-01T09:52:50.907Z,52.97
2018-12-01T09:55:21.859Z,51.30
2018-12-01T09:57:50.681Z,55.40
2018-12-01T10:00:29.251Z,53.90
2018-12-01T10:02:58.469Z,44.03
2018-12-01T10:05:27.623Z,42.57
2018-12-01T10:07:56.427Z,43.83
2018-12-01T10:10:25.320Z,42.13
2018-12-01T10:12:56.183Z,46.60
2018-12-01T10:15:27.109Z,43.33
2018-12-01T10:17:55.987Z,45.33
2018-12-01T10:20:27.295Z,43.50
2018-12-01T10:22:56.170Z,43.83
2018-12-01T10:25:25.399Z,49.23
2018-12-01T10:27:54.725Z,46.50
2018-12-01T10:30:23.990Z,47.27
2018-12-01T10:32:53.217Z,45.87
2018-12-01T10:35:23.080Z,44.77
2018-12-01T10:37:54.450Z,45.30
2018-12-01T10:40:23.287Z,45.27
2018-12-01T10:42:52.197Z,46.40
2018-12-01T10:45:21.460Z,45.70
2018-12-01T10:47:50.689Z,46.03
2018-12-01T10:50:21.044Z,45.57
2018-12-01T10:52:51.033Z,46.33
2018-12-01T10:55:29.607Z,46.90
2018-12-01T10:58:02.621Z,46.23
2018-12-01T11:00:37.053Z,48.37
2018-12-01T11:03:11.260Z,47.63
2018-12-01T11:05:40.031Z,49.27
2018-12-01T11:08:09.912Z,47.03
2018-12-01T11:10:38.743Z,47.07
2018-12-01T11:13:07.587Z,46.53
2018-12-01T11:15:36.423Z,48.53
2018-12-01T11:18:05.596Z,51.83
2018-12-01T11:20:34.459Z,50.07
2018-12-01T11:23:03.251Z,52.77
2018-12-01T11:25:32.080Z,55.07
2018-12-01T11:28:00.900Z,54.63
2018-12-01T11:30:30.043Z,57.27
2018-12-01T11:32:58.931Z,54.67
2018-12-01T11:35:27.650Z,57.80
2018-12-01T11:37:56.871Z,54.13
2018-12-01T11:40:25.671Z,55.40
2018-12-01T11:42:54.513Z,56.47
2018-12-01T11:45:23.360Z,59.20
2018-12-01T11:47:52.213Z,55.43
2018-12-01T11:50:21.314Z,56.87
2018-12-01T11:52:51.071Z,55.60
2018-12-01T11:55:22.442Z,53.97
2018-12-01T11:57:51.973Z,57.00
2018-12-01T12:00:21.976Z,59.93
2018-12-01T12:02:50.714Z,55.27
2018-12-01T12:05:19.981Z,54.33
2018-12-01T12:07:59.807Z,53.40
2018-12-01T12:10:28.632Z,54.83
2018-12-01T12:12:57.507Z,52.60
2018-12-01T12:15:27.458Z,53.03
2018-12-01T12:17:59.640Z,53.83
2018-12-01T12:20:29.159Z,52.53
2018-12-01T12:22:58.058Z,54.10
2018-12-01T12:25:27.363Z,52.03
2018-12-01T12:27:56.219Z,52.40
2018-12-01T12:30:25.926Z,51.37
2018-12-01T12:32:53.977Z,53.70
2018-12-01T12:35:22.822Z,50.30
2018-12-01T12:37:51.925Z,50.27
2018-12-01T12:40:21.929Z,52.00
2018-12-01T12:42:51.060Z,48.80
2018-12-01T12:45:19.973Z,47.20
2018-12-01T12:47:48.824Z,49.47
2018-12-01T12:50:18.434Z,46.90
2018-12-01T12:52:50.237Z,49.77
2018-12-01T12:55:22.306Z,44.30
2018-12-01T12:57:51.072Z,44.10
2018-12-01T13:00:21.464Z,45.10
2018-12-01T13:02:55.326Z,48.50
2018-12-01T13:05:25.597Z,47.87
2018-12-01T13:07:54.478Z,56.03
2018-12-01T13:10:24.235Z,54.83
2018-12-01T13:12:53.146Z,57.83
2018-12-01T13:15:22.357Z,59.47
2018-12-01T13:17:51.095Z,61.97
2018-12-01T13:20:21.618Z,60.37
2018-12-01T13:22:52.581Z,60.93
2018-12-01T13:25:21.447Z,61.90
2018-12-01T13:27:55.498Z,60.87
2018-12-01T13:30:26.492Z,59.97
2018-12-01T13:32:55.338Z,60.80
2018-12-01T13:35:24.134Z,59.37
2018-12-01T13:37:53.004Z,75.90
2018-12-01T13:40:22.288Z,107.60
2018-12-01T13:42:51.473Z,97.17
2018-12-01T13:45:20.683Z,86.57
2018-12-01T13:47:50.502Z,74.57
2018-12-01T13:50:20.347Z,60.77
2018-12-01T13:52:51.681Z,48.23
2018-12-01T13:55:20.532Z,47.33
2018-12-01T13:57:49.388Z,44.27
2018-12-01T14:00:22.304Z,41.73
2018-12-01T14:02:52.822Z,43.33
2018-12-01T14:05:21.577Z,61.50
2018-12-01T14:07:50.846Z,59.30
2018-12-01T14:10:23.913Z,57.00
2018-12-01T14:12:54.354Z,55.87
2018-12-01T14:15:24.419Z,56.70
2018-12-01T14:17:53.557Z,61.83
2018-12-01T14:20:22.446Z,54.03
2018-12-01T14:22:51.647Z,42.10
2018-12-01T14:25:21.723Z,39.30
2018-12-01T14:27:52.563Z,32.73
2018-12-01T14:30:21.404Z,27.93
2018-12-01T14:32:50.227Z,39.67
2018-12-01T14:35:29.074Z,30.77
2018-12-01T14:38:02.151Z,29.13
2018-12-01T14:40:31.332Z,29.43
2018-12-01T14:42:59.975Z,31.30
2018-12-01T14:45:28.780Z,30.13
2018-12-01T14:47:57.576Z,29.33
2018-12-01T14:50:26.372Z,29.27
2018-12-01T14:52:55.441Z,27.90
2018-12-01T14:55:24.250Z,28.23
2018-12-01T14:57:53.025Z,28.77
2018-12-01T15:00:24.313Z,28.37
2018-12-01T15:02:54.025Z,29.13
2018-12-01T15:05:23.697Z,27.10
2018-12-01T15:07:52.898Z,28.97
2018-12-01T15:10:26.668Z,28.77
2018-12-01T15:12:55.590Z,29.47
2018-12-01T15:15:25.631Z,28.47
2018-12-01T15:17:54.466Z,29.00
2018-12-01T15:20:25.636Z,28.80
2018-12-01T15:22:56.408Z,29.47
2018-12-01T15:25:28.045Z,30.67
2018-12-01T15:27:57.056Z,28.80
2018-12-01T15:30:28.929Z,30.67
2018-12-01T15:33:13.684Z,28.53
2018-12-01T15:35:43.500Z,30.60
2018-12-01T15:38:25.976Z,30.90
2018-12-01T15:40:55.244Z,28.90
2018-12-01T15:43:24.440Z,30.47
2018-12-01T15:45:53.495Z,32.07
2018-12-01T15:48:22.331Z,80.80
2018-12-01T15:50:51.171Z,85.17
2018-12-01T15:53:19.990Z,80.40
2018-12-01T15:55:48.837Z,85.43
2018-12-01T15:58:17.667Z,82.67
2018-12-01T16:00:46.874Z,77.17
2018-12-01T16:03:15.685Z,79.77
2018-12-01T16:05:44.927Z,98.43
2018-12-01T16:08:14.090Z,91.43
2018-12-01T16:10:42.903Z,73.37
2018-12-01T16:13:15.133Z,75.37
2018-12-01T16:15:45.895Z,84.70
2018-12-01T16:18:14.696Z,72.17
2018-12-01T16:20:43.528Z,65.13
2018-12-01T16:23:12.468Z,74.10
2018-12-01T16:25:41.420Z,63.13
2018-12-01T16:28:10.204Z,65.30
2018-12-01T16:30:41.380Z,80.03
2018-12-01T16:33:16.798Z,90.43
2018-12-01T16:35:45.641Z,95.67
2018-12-01T16:38:16.116Z,94.03
2018-12-01T16:41:12.992Z,100.93
2018-12-01T16:43:41.775Z,97.70
2018-12-01T16:46:10.665Z,89.63
2018-12-01T16:48:39.494Z,88.70
2018-12-01T16:51:08.344Z,84.87
2018-12-01T16:53:37.566Z,83.90
2018-12-01T16:56:06.753Z,77.27
2018-12-01T16:58:35.690Z,76.43
2018-12-01T17:01:04.648Z,75.43
2018-12-01T17:03:40.117Z,81.17
2018-12-01T17:06:16.838Z,82.97
2018-12-01T17:08:45.677Z,78.90
2018-12-01T17:11:14.842Z,76.97
2018-12-01T17:13:43.646Z,72.27
2018-12-01T17:16:12.455Z,72.07
2018-12-01T17:18:41.360Z,68.70
2018-12-01T17:21:10.161Z,73.67
2018-12-01T17:23:38.978Z,71.60
2018-12-01T17:26:07.783Z,66.57
2018-12-01T17:28:36.588Z,64.43
2018-12-01T17:31:06.301Z,71.67
2018-12-01T17:33:35.238Z,70.30
2018-12-01T17:36:04.448Z,76.03
2018-12-01T17:38:33.310Z,72.20
2018-12-01T17:41:23.375Z,75.07
2018-12-01T17:43:55.284Z,76.90
2018-12-01T17:46:24.114Z,75.47
2018-12-01T17:48:52.916Z,75.43
2018-12-01T17:51:21.715Z,75.03
2018-12-01T17:53:53.374Z,77.93
2018-12-01T17:56:22.258Z,74.10
2018-12-01T17:58:51.205Z,77.90
2018-12-01T18:01:20.060Z,76.23
2018-12-01T18:03:49.269Z,72.20
2018-12-01T18:06:18.127Z,70.03
2018-12-01T18:08:47.044Z,73.30
2018-12-01T18:11:16.325Z,73.60
2018-12-01T18:13:45.123Z,74.37
2018-12-01T18:16:13.942Z,77.87
2018-12-01T18:18:42.744Z,75.60
2018-12-01T18:21:11.500Z,71.80
2018-12-01T18:23:40.287Z,76.43
2018-12-01T18:26:09.501Z,79.37
2018-12-01T18:28:41.290Z,79.53
2018-12-01T18:31:19.895Z,76.93
2018-12-01T18:33:51.650Z,82.00
2018-12-01T18:36:20.506Z,74.43
2018-12-01T18:38:50.715Z,77.10
2018-12-01T18:41:19.812Z,73.30
2018-12-01T18:43:48.822Z,74.90
2018-12-01T18:46:17.693Z,76.93
2018-12-01T18:48:47.045Z,73.73
2018-12-01T18:51:15.865Z,71.47
2018-12-01T18:53:44.682Z,75.27
2018-12-01T18:56:13.488Z,73.70
2018-12-01T18:58:42.324Z,71.13
2018-12-01T19:01:11.737Z,74.57
2018-12-01T19:03:40.569Z,73.63
2018-12-01T19:06:09.695Z,78.23
2018-12-01T19:08:38.649Z,81.37
2018-12-01T19:11:08.127Z,76.50
2018-12-01T19:13:37.085Z,80.80
2018-12-01T19:16:06.376Z,80.87
2018-12-01T19:18:35.289Z,81.13
2018-12-01T19:21:05.046Z,82.77
2018-12-01T19:23:33.920Z,84.10
2018-12-01T19:26:02.732Z,88.80
2018-12-01T19:28:31.595Z,88.27
2018-12-01T19:31:00.436Z,89.13
2018-12-01T19:33:29.259Z,83.83
2018-12-01T19:35:58.154Z,88.27
2018-12-01T19:38:28.569Z,94.87
2018-12-01T19:40:59.104Z,86.23
2018-12-01T19:43:27.940Z,86.93
2018-12-01T19:45:59.160Z,86.43
2018-12-01T19:48:28.465Z,93.30
2018-12-01T19:50:57.208Z,90.07
2018-12-01T19:53:25.997Z,89.07
2018-12-01T19:55:55.101Z,87.10
2018-12-01T19:58:25.553Z,89.60
2018-12-01T20:00:56.456Z,100.13
2018-12-01T20:03:26.493Z,95.23
2018-12-01T20:05:55.410Z,92.13
2018-12-01T20:08:25.601Z,94.00
2018-12-01T20:10:56.533Z,97.03
2018-12-01T20:13:35.992Z,93.33
2018-12-01T20:16:15.521Z,94.80
2018-12-01T20:18:44.342Z,95.73
2018-12-01T20:21:13.171Z,92.33
2018-12-01T20:23:42.021Z,95.23
2018-12-01T20:26:10.788Z,94.43
2018-12-01T20:28:40.070Z,95.23
2018-12-01T20:31:08.918Z,98.57
2018-12-01T20:33:37.781Z,99.57
2018-12-01T20:36:12.985Z,98.83
2018-12-01T20:38:45.765Z,98.70
2018-12-01T20:41:14.588Z,94.17
2018-12-01T20:43:43.497Z,101.93
2018-12-01T20:46:12.391Z,96.57
2018-12-01T20:48:41.220Z,101.77
2018-12-01T20:51:10.077Z,100.33
2018-12-01T20:53:45.228Z,99.63
2018-12-01T20:56:16.735Z,96.37
2018-12-01T20:58:45.538Z,96.40
2018-12-01T21:01:14.332Z,93.67
2018-12-01T21:03:43.355Z,90.10
2018-12-01T21:06:12.223Z,93.43
2018-12-01T21:08:41.054Z,99.90
2018-12-01T21:11:11.926Z,97.03
2018-12-01T21:13:40.693Z,94.73
2018-12-01T21:16:09.634Z,88.17
2018-12-01T21:18:38.666Z,90.97
2018-12-01T21:21:07.541Z,85.57
2018-12-01T21:23:36.401Z,88.83
2018-12-01T21:26:05.200Z,94.23
2018-12-01T21:28:34.000Z,95.70
2018-12-01T21:31:02.795Z,95.43
2018-12-01T21:33:33.058Z,88.97
2018-12-01T21:36:01.872Z,96.67
2018-12-01T21:38:30.704Z,90.90
2018-12-01T21:40:59.522Z,90.47
2018-12-01T21:43:28.354Z,84.97
2018-12-01T21:45:57.150Z,90.10
2018-12-01T21:48:25.919Z,88.33
2018-12-01T21:50:54.727Z,88.30
2018-12-01T21:53:25.044Z,90.80
2018-12-01T21:55:53.908Z,89.03
2018-12-01T21:58:22.746Z,95.20
2018-12-01T22:01:06.717Z,94.23
2018-12-01T22:03:35.529Z,94.50
2018-12-01T22:06:05.934Z,90.77
2018-12-01T22:08:35.487Z,92.30
2018-12-01T22:11:04.387Z,96.37
2018-12-01T22:13:33.204Z,103.00
2018-12-01T22:16:01.995Z,104.97
2018-12-01T22:18:30.835Z,106.17
2018-12-01T22:20:59.647Z,104.30
2018-12-01T22:23:28.734Z,101.23
2018-12-01T22:25:57.541Z,104.53
2018-12-01T22:28:26.427Z,106.33
2018-12-01T22:30:55.202Z,109.53
2018-12-01T22:33:26.335Z,109.10
2018-12-01T22:35:55.206Z,109.70
2018-12-01T22:38:25.174Z,111.00
2018-12-01T22:40:54.017Z,110.13
2018-12-01T22:43:22.853Z,108.77
2018-12-01T22:45:51.723Z,105.43
2018-12-01T22:48:22.910Z,103.40
2018-12-01T22:50:52.776Z,103.90
2018-12-01T22:53:21.610Z,102.97
2018-12-01T22:55:51.280Z,101.47
2018-12-01T22:58:21.225Z,98.20
2018-12-01T23:00:53.619Z,99.33
2018-12-01T23:03:23.058Z,102.60
2018-12-01T23:05:51.860Z,101.23
2018-12-01T23:08:22.003Z,103.23
2018-12-01T23:10:50.805Z,104.87
2018-12-01T23:13:19.934Z,96.37
2018-12-01T23:15:48.848Z,100.93
2018-12-01T23:18:19.991Z,101.53
2018-12-01T23:20:49.290Z,103.63
2018-12-01T23:23:18.476Z,105.43
2018-12-01T23:25:47.342Z,106.43
2018-12-01T23:28:16.139Z,111.40
2018-12-01T23:30:47.548Z,105.43
2018-12-01T23:33:26.273Z,108.77
2018-12-01T23:35:55.910Z,106.00
2018-12-01T23:38:24.740Z,108.83
2018-12-01T23:40:53.853Z,113.00
2018-12-01T23:43:22.655Z,111.67
2018-12-01T23:45:51.442Z,106.67
2018-12-01T23:48:20.237Z,110.43
2018-12-01T23:50:52.088Z,107.73
2018-12-01T23:53:21.458Z,110.07
2018-12-01T23:55:50.660Z,105.63
2018-12-01T23:58:19.445Z,102.50
